Ankeny, IA

11:41 PM CST on February 27, 2017 (GMT -0600)
Ankeny Regional

Weather History for KIKV - February, 2013

Change the Weather History Date:

Thursday, February 28, 2013

  Actual Average (KDSM) Record (KDSM)
Temperature  
Mean Temperature 28 °F -  
Max Temperature 33 °F 43 °F 69 °F (1932)
Min Temperature 24 °F 23 °F -16 °F (1962)
Degree Days  
Heating Degree Days 36    
Moisture  
Dew Point 21 °F    
Average Humidity 76    
Maximum Humidity 86    
Minimum Humidity 60    
Precipitation  
Precipitation 0.00 in - - ()
Sea Level Pressure  
Sea Level Pressure 30.10 in    
Wind  
Wind Speed 12 mph (NW)    
Max Wind Speed 17 mph    
Max Gust Speed 22 mph    
Visibility 10 miles    
Events      
Averages and records for this station are not official NWS values.
T = Trace of Precipitation, MM = Missing Value Source: NWS Daily Summary

Daily Weather History Graph

Daily Weather History Graph

Search for Another Location

Airport or City:

Trip Planner

Search our weather history database for the weather conditions in past years. The results will help you decide how hot, cold, wet, or windy it might be!

Date:

Astronomy

Feb. 28, 2013 Rise Set
Actual Time 6:50 AM CST 6:03 PM CST
Civil Twilight 6:22 AM CST 6:31 PM CST
Nautical Twilight 5:50 AM CST 7:04 PM CST
Astronomical Twilight 5:18 AM CST 7:36 PM CST
Moon 9:35 PM CST 7:56 AM CST
Length of Visible Light 12h 09m
Length of Day
11h 13m
Waning Gibbous, 90% of the Moon is Illuminated
Feb 28
Waning Gibbous
Mar 4
Last Quarter
Mar 11
New
Mar 19
First Quarter
Mar 27
Full

Hourly Weather History & Observations

Time (CST) Temp. Windchill Dew Point Humidity Pressure Visibility Wind Dir Wind Speed Gust Speed Precip Events Conditions
12:15 AM 24.8 °F 12.9 °F 19.4 °F 80% 29.99 in 10.0 mi NW 13.8 mph 21.9 mph N/A   Overcast
12:35 AM 24.8 °F 11.9 °F 19.4 °F 80% 29.99 in 10.0 mi NW 16.1 mph 20.7 mph N/A   Overcast
12:55 AM 24.8 °F 11.9 °F 19.4 °F 80% 30.00 in 10.0 mi NNW 16.1 mph 21.9 mph N/A   Overcast
1:15 AM 24.8 °F 11.5 °F 19.4 °F 80% 30.00 in 10.0 mi NW 17.3 mph - N/A   Overcast
1:35 AM 24.8 °F 12.4 °F 19.4 °F 80% 30.00 in 10.0 mi NW 15.0 mph 19.6 mph N/A   Overcast
1:55 AM 24.8 °F 12.9 °F 19.4 °F 80% 30.00 in 10.0 mi NW 13.8 mph - N/A   Overcast
2:15 AM 26.6 °F 16.8 °F 19.4 °F 74% 30.00 in 10.0 mi NW 10.4 mph 17.3 mph N/A   Overcast
2:35 AM 24.8 °F 16.1 °F 19.4 °F 80% 30.00 in 10.0 mi NW 8.1 mph - N/A   Overcast
2:55 AM 24.8 °F 15.3 °F 19.4 °F 80% 30.00 in 10.0 mi NW 9.2 mph - N/A   Mostly Cloudy
3:15 AM 24.8 °F 13.4 °F 19.4 °F 80% 30.00 in 10.0 mi NW 12.7 mph 16.1 mph N/A   Mostly Cloudy
3:55 AM 24.8 °F 14.6 °F 19.4 °F 80% 30.01 in 10.0 mi NW 10.4 mph - N/A   Overcast
4:35 AM 26.6 °F 15.2 °F 21.2 °F 80% 30.03 in 10.0 mi NW 13.8 mph - N/A   Overcast
4:55 AM 26.6 °F 15.7 °F 21.2 °F 80% 30.03 in 10.0 mi NW 12.7 mph 18.4 mph N/A   Overcast
5:15 AM 24.8 °F 15.3 °F 19.4 °F 80% 30.04 in 10.0 mi NW 9.2 mph - N/A   Overcast
5:35 AM 24.8 °F 14.6 °F 19.4 °F 80% 30.04 in 10.0 mi NW 10.4 mph - N/A   Overcast
5:55 AM 24.8 °F 14.0 °F 19.4 °F 80% 30.05 in 10.0 mi NW 11.5 mph 17.3 mph N/A   Overcast
6:15 AM 24.8 °F 13.4 °F 19.4 °F 80% 30.06 in 10.0 mi NNW 12.7 mph - N/A   Overcast
6:35 AM 24.8 °F 14.0 °F 19.4 °F 80% 30.06 in 10.0 mi NW 11.5 mph - N/A   Overcast
6:55 AM 24.8 °F 14.6 °F 19.4 °F 80% 30.07 in 10.0 mi NW 10.4 mph - N/A   Overcast
7:15 AM 24.8 °F 13.4 °F 19.4 °F 80% 30.08 in 10.0 mi NNW 12.7 mph 16.1 mph N/A   Overcast
7:35 AM 24.8 °F 13.4 °F 19.4 °F 80% 30.09 in 10.0 mi NW 12.7 mph - N/A   Overcast
7:55 AM 24.8 °F 15.3 °F 19.4 °F 80% 30.09 in 10.0 mi NW 9.2 mph - N/A   Overcast
8:15 AM 24.8 °F 14.0 °F 19.4 °F 80% 30.10 in 10.0 mi NW 11.5 mph - N/A   Overcast
8:35 AM 24.8 °F 14.6 °F 17.6 °F 74% 30.11 in 10.0 mi NW 10.4 mph - N/A   Overcast
8:55 AM 24.8 °F 16.1 °F 17.6 °F 74% 30.12 in 10.0 mi NW 8.1 mph - N/A   Overcast
9:15 AM 24.8 °F 14.0 °F 17.6 °F 74% 30.12 in 10.0 mi NW 11.5 mph - N/A   Overcast
9:55 AM 26.6 °F 15.2 °F 19.4 °F 74% 30.12 in 10.0 mi NW 13.8 mph - N/A   Overcast
10:15 AM 26.6 °F 16.2 °F 19.4 °F 74% 30.12 in 10.0 mi NW 11.5 mph 17.3 mph N/A   Overcast
10:35 AM 28.4 °F 18.5 °F 21.2 °F 74% 30.12 in 10.0 mi NNW 11.5 mph - N/A   Overcast
10:55 AM 28.4 °F 17.5 °F 21.2 °F 74% 30.12 in 10.0 mi NNW 13.8 mph 18.4 mph N/A   Overcast
11:15 AM 30.2 °F 19.3 °F 21.2 °F 69% 30.13 in 10.0 mi NNW 15.0 mph 19.6 mph N/A   Overcast
11:55 AM 30.2 °F 19.3 °F 21.2 °F 69% 30.13 in 10.0 mi NNW 15.0 mph 20.7 mph N/A   Overcast
12:15 PM 30.2 °F 20.2 °F 21.2 °F 69% 30.13 in 10.0 mi NNW 12.7 mph 18.4 mph N/A   Overcast
12:35 PM 30.2 °F 21.3 °F 23.0 °F 75% 30.13 in 10.0 mi NW 10.4 mph - N/A   Overcast
12:55 PM 32.0 °F 23.0 °F 21.2 °F 64% 30.13 in 10.0 mi NNW 11.5 mph 16.1 mph N/A   Overcast
1:15 PM 32.0 °F 22.5 °F 23.0 °F 69% 30.13 in 10.0 mi NNW 12.7 mph - N/A   Overcast
1:35 PM 33.8 °F 24.3 °F 21.2 °F 60% 30.12 in 10.0 mi NNW 13.8 mph - N/A   Overcast
1:55 PM 33.8 °F 23.9 °F 21.2 °F 60% 30.12 in 10.0 mi North 15.0 mph 21.9 mph N/A   Overcast
2:15 PM 33.8 °F 23.9 °F 21.2 °F 60% 30.12 in 10.0 mi NNW 15.0 mph 19.6 mph N/A   Overcast
2:35 PM 32.0 °F 21.6 °F 23.0 °F 69% 30.12 in 10.0 mi NNW 15.0 mph - N/A   Overcast
2:55 PM 32.0 °F 23.0 °F 23.0 °F 69% 30.13 in 10.0 mi NW 11.5 mph - N/A   Overcast
3:15 PM 32.0 °F 23.0 °F 24.8 °F 75% 30.13 in 10.0 mi NW 11.5 mph - N/A   Overcast
3:35 PM 32.0 °F 22.1 °F 23.0 °F 69% 30.13 in 10.0 mi NNW 13.8 mph - N/A   Overcast
3:55 PM 32.0 °F 22.5 °F 23.0 °F 69% 30.14 in 10.0 mi NNW 12.7 mph 18.4 mph N/A   Overcast
4:15 PM 30.2 °F 20.8 °F 23.0 °F 75% 30.14 in 10.0 mi NNW 11.5 mph - N/A   Overcast
4:35 PM 30.2 °F 20.2 °F 23.0 °F 75% 30.14 in 10.0 mi NNW 12.7 mph - N/A   Overcast
4:55 PM 30.2 °F 20.2 °F 23.0 °F 75% 30.14 in 10.0 mi NNW 12.7 mph - N/A   Overcast
5:15 PM 30.2 °F 20.8 °F 23.0 °F 75% 30.14 in 10.0 mi NNW 11.5 mph - N/A   Overcast
5:35 PM 30.2 °F 21.9 °F 23.0 °F 75% 30.15 in 10.0 mi NNW 9.2 mph - N/A   Overcast
6:15 PM 30.2 °F 21.9 °F 23.0 °F 75% 30.15 in 10.0 mi NNW 9.2 mph 17.3 mph N/A   Overcast
6:35 PM 30.2 °F 22.6 °F 23.0 °F 75% 30.16 in 10.0 mi NNW 8.1 mph - N/A   Overcast
7:15 PM 30.2 °F 21.3 °F 24.8 °F 80% 30.16 in 10.0 mi NNW 10.4 mph - N/A   Overcast
7:35 PM 30.2 °F 21.9 °F 24.8 °F 80% 30.16 in 10.0 mi NNW 9.2 mph - N/A   Overcast
7:55 PM 28.4 °F 18.5 °F 24.8 °F 86% 30.16 in 10.0 mi NNW 11.5 mph - N/A   Overcast
8:15 PM 28.4 °F 20.4 °F 24.8 °F 86% 30.16 in 10.0 mi NNW 8.1 mph - N/A   Overcast
8:35 PM 28.4 °F 20.4 °F 24.8 °F 86% 30.16 in 10.0 mi NW 8.1 mph - N/A   Overcast
8:55 PM 28.4 °F 19.1 °F 23.0 °F 80% 30.16 in 10.0 mi NW 10.4 mph - N/A   Overcast
9:15 PM 28.4 °F 18.5 °F 23.0 °F 80% 30.16 in 10.0 mi NNW 11.5 mph - N/A   Overcast
9:35 PM 28.4 °F 18.5 °F 23.0 °F 80% 30.16 in 10.0 mi NNW 11.5 mph 18.4 mph N/A   Overcast
10:15 PM 28.4 °F 18.5 °F 23.0 °F 80% 30.16 in 10.0 mi NNW 11.5 mph - N/A   Overcast
10:35 PM 28.4 °F 19.1 °F 23.0 °F 80% 30.16 in 10.0 mi NNW 10.4 mph - N/A   Overcast
10:55 PM 28.4 °F 19.1 °F 23.0 °F 80% 30.16 in 10.0 mi NNW 10.4 mph - N/A   Overcast
11:15 PM 28.4 °F 19.1 °F 23.0 °F 80% 30.16 in 10.0 mi NNW 10.4 mph - N/A   Overcast
11:35 PM 28.4 °F 19.7 °F 23.0 °F 80% 30.16 in 10.0 mi NNW 9.2 mph - N/A   Overcast
11:55 PM 28.4 °F 20.4 °F 21.2 °F 74% 30.16 in 10.0 mi NW 8.1 mph - N/A   Overcast